createdAt,value
2023-03-11T00:02:06.249Z,5.38
2023-03-11T00:07:06.808Z,6.55
2023-03-11T00:12:05.287Z,6.72
2023-03-11T00:17:03.454Z,20.45
2023-03-11T00:22:04.398Z,15.25
2023-03-11T00:27:02.537Z,4.40
2023-03-11T00:32:00.665Z,3.25
2023-03-11T00:36:58.899Z,3.95
2023-03-11T00:41:58.487Z,4.07
2023-03-11T00:46:56.955Z,3.42
2023-03-11T00:51:55.198Z,3.20
2023-03-11T00:56:53.371Z,3.58
2023-03-11T01:01:53.102Z,3.35
2023-03-11T01:06:53.224Z,3.50
2023-03-11T01:11:51.714Z,4.28
2023-03-11T01:16:49.851Z,3.97
2023-03-11T01:21:49.352Z,3.95
2023-03-11T01:26:47.469Z,3.72
2023-03-11T01:31:45.607Z,5.03
2023-03-11T01:36:43.775Z,4.22
2023-03-11T01:41:43.264Z,3.40
2023-03-11T01:46:59.745Z,3.50
2023-03-11T01:52:03.859Z,3.72
2023-03-11T01:57:06.374Z,3.35
2023-03-11T02:02:07.863Z,3.58
2023-03-11T02:07:08.166Z,3.08
2023-03-11T02:12:10.098Z,3.33
2023-03-11T02:17:08.426Z,3.95
2023-03-11T02:22:06.732Z,3.50
2023-03-11T02:27:07.550Z,3.60
2023-03-11T02:32:07.475Z,4.15
2023-03-11T02:37:07.449Z,5.05
2023-03-11T02:42:08.863Z,3.55
2023-03-11T02:47:07.574Z,5.05
2023-03-11T02:52:06.774Z,14.18
2023-03-11T02:57:05.128Z,10.05
2023-03-11T03:02:04.840Z,7.82
2023-03-11T03:07:03.767Z,7.30
2023-03-11T03:12:02.595Z,7.22
2023-03-11T03:17:04.395Z,13.27
2023-03-11T03:22:02.909Z,10.23
2023-03-11T03:27:01.201Z,14.65
2023-03-11T03:31:59.813Z,4.40
2023-03-11T03:37:02.328Z,3.53
2023-03-11T03:42:00.516Z,5.85
2023-03-11T03:47:01.795Z,9.05
2023-03-11T03:52:01.982Z,6.63
2023-03-11T03:57:03.256Z,10.45
2023-03-11T04:02:03.244Z,5.03
2023-03-11T04:07:04.447Z,3.95
2023-03-11T04:12:03.148Z,5.55
2023-03-11T04:17:03.707Z,5.63
2023-03-11T04:22:01.995Z,4.30
2023-03-11T04:27:02.290Z,4.15
2023-03-11T04:32:02.852Z,5.25
2023-03-11T04:37:01.859Z,5.15
2023-03-11T04:42:05.723Z,5.82
2023-03-11T04:47:05.416Z,5.03
2023-03-11T04:52:03.924Z,6.15
2023-03-11T04:57:02.439Z,7.63
2023-03-11T05:02:02.274Z,8.48
2023-03-11T05:07:01.143Z,7.25
2023-03-11T05:11:59.360Z,5.80
2023-03-11T05:16:59.107Z,6.28
2023-03-11T05:21:58.940Z,6.55
2023-03-11T05:26:58.525Z,13.13
2023-03-11T05:31:57.373Z,13.23
2023-03-11T05:36:55.636Z,9.27
2023-03-11T05:41:57.166Z,9.00
2023-03-11T05:46:56.979Z,6.60
2023-03-11T05:51:58.064Z,10.07
2023-03-11T05:56:59.067Z,8.00
2023-03-11T06:01:57.344Z,10.75
2023-03-11T06:06:56.275Z,9.85
2023-03-11T06:11:56.850Z,8.57
2023-03-11T06:17:01.398Z,10.15
2023-03-11T06:21:59.858Z,12.18
2023-03-11T06:26:58.128Z,8.57
2023-03-11T06:31:59.414Z,6.88
2023-03-11T06:36:59.553Z,5.70
2023-03-11T06:41:57.738Z,6.18
2023-03-11T06:46:58.661Z,7.05
2023-03-11T06:51:57.013Z,10.95
2023-03-11T06:56:57.060Z,15.63
2023-03-11T07:01:55.386Z,11.23
2023-03-11T07:06:53.745Z,9.98
2023-03-11T07:11:53.683Z,18.33
2023-03-11T07:16:59.876Z,12.50
2023-03-11T07:22:07.314Z,13.77
2023-03-11T07:27:05.688Z,6.43
2023-03-11T07:32:05.648Z,6.50
2023-03-11T07:37:04.554Z,7.20
2023-03-11T07:42:02.698Z,7.18
2023-03-11T07:47:07.862Z,6.30
2023-03-11T07:52:08.343Z,7.18
2023-03-11T07:57:07.428Z,7.13
2023-03-11T08:02:06.987Z,5.90
2023-03-11T08:07:05.159Z,5.13
2023-03-11T08:12:03.267Z,4.18
2023-03-11T08:17:01.407Z,5.85
2023-03-11T08:22:02.054Z,4.22
2023-03-11T08:27:00.206Z,4.63
2023-03-11T08:31:58.511Z,4.07
2023-03-11T08:36:56.661Z,5.82
2023-03-11T08:41:56.161Z,5.38
2023-03-11T08:46:54.373Z,5.55
2023-03-11T08:51:52.486Z,4.80
2023-03-11T08:56:50.610Z,5.00
2023-03-11T09:01:50.132Z,4.10
2023-03-11T09:06:48.936Z,5.55
2023-03-11T09:11:47.259Z,4.30
2023-03-11T09:16:45.424Z,3.00
2023-03-11T09:21:44.914Z,3.30
2023-03-11T09:26:43.032Z,4.70
2023-03-11T09:31:41.307Z,3.05
2023-03-11T09:36:41.614Z,3.63
2023-03-11T09:41:57.191Z,3.75
2023-03-11T09:47:24.904Z,3.17
2023-03-11T09:52:26.467Z,3.50
2023-03-11T09:57:29.138Z,4.50
2023-03-11T10:02:28.023Z,4.20
2023-03-11T10:07:29.010Z,4.80
2023-03-11T10:12:34.764Z,3.80
2023-03-11T10:17:41.434Z,4.22
2023-03-11T10:22:42.304Z,5.00
2023-03-11T10:27:44.554Z,4.35
2023-03-11T10:32:45.251Z,3.90
2023-03-11T10:37:49.828Z,4.32
2023-03-11T10:42:49.792Z,4.05
2023-03-11T10:47:47.908Z,4.10
2023-03-11T10:53:04.776Z,4.72
2023-03-11T10:58:08.348Z,4.55
2023-03-11T11:03:06.909Z,4.00
2023-03-11T11:08:06.269Z,3.78
2023-03-11T11:13:17.836Z,3.13
2023-03-11T11:18:19.539Z,4.20
2023-03-11T11:23:26.273Z,3.10
2023-03-11T11:28:24.412Z,3.03
2023-03-11T11:33:25.441Z,2.58
2023-03-11T11:38:25.198Z,2.58
2023-03-11T11:43:26.209Z,2.60
2023-03-11T11:48:27.979Z,3.17
2023-03-11T11:53:29.416Z,3.15
2023-03-11T11:58:28.598Z,3.92
2023-03-11T12:03:39.169Z,3.20
2023-03-11T12:08:39.977Z,3.50
2023-03-11T12:13:54.982Z,5.85
2023-03-11T12:18:58.166Z,3.55
2023-03-11T12:24:01.917Z,4.53
2023-03-11T12:29:02.272Z,5.53
2023-03-11T12:34:03.939Z,4.50
2023-03-11T12:39:03.465Z,5.63
2023-03-11T12:44:05.078Z,5.43
2023-03-11T12:49:12.887Z,5.20
2023-03-11T12:54:28.723Z,4.57
2023-03-11T12:59:50.746Z,4.00
2023-03-11T13:04:57.074Z,3.58
2023-03-11T13:10:03.005Z,3.20
2023-03-11T13:15:16.003Z,2.33
2023-03-11T13:20:29.005Z,1.90
2023-03-11T13:25:48.206Z,2.13
2023-03-11T13:30:53.106Z,2.67
2023-03-11T13:35:58.739Z,2.33
2023-03-11T13:40:56.957Z,2.47
2023-03-11T13:45:59.179Z,2.30
2023-03-11T13:51:00.096Z,3.50
2023-03-11T13:55:58.275Z,4.28
2023-03-11T14:00:59.353Z,3.55
2023-03-11T14:05:59.092Z,2.67
2023-03-11T14:10:58.058Z,1.88
2023-03-11T14:16:01.571Z,3.50
2023-03-11T14:21:00.324Z,3.42
2023-03-11T14:26:06.670Z,2.53
2023-03-11T14:31:06.524Z,2.58
2023-03-11T14:36:07.067Z,19.83
2023-03-11T14:41:06.404Z,7.28
2023-03-11T14:46:07.010Z,32.38
2023-03-11T14:51:07.236Z,22.83
2023-03-11T14:56:07.861Z,27.73
2023-03-11T15:01:11.344Z,33.40
2023-03-11T15:06:10.401Z,17.25
2023-03-11T15:11:15.471Z,15.90
2023-03-11T15:16:24.353Z,9.20
2023-03-11T15:21:23.622Z,6.38
2023-03-11T15:26:23.476Z,9.38
2023-03-11T15:31:31.382Z,6.45
2023-03-11T15:36:30.511Z,9.95
2023-03-11T15:41:28.673Z,6.95
2023-03-11T15:46:26.856Z,7.70
2023-03-11T15:51:26.392Z,18.25
2023-03-11T15:56:25.738Z,14.00
2023-03-11T16:01:28.520Z,21.23
2023-03-11T16:06:28.050Z,22.15
2023-03-11T16:11:27.923Z,10.10
2023-03-11T16:16:26.093Z,11.25
2023-03-11T16:21:25.508Z,8.43
2023-03-11T16:26:25.011Z,8.15
2023-03-11T16:31:23.267Z,4.57
2023-03-11T16:36:21.462Z,7.45
2023-03-11T16:41:19.748Z,5.38
2023-03-11T16:46:19.278Z,3.80
2023-03-11T16:51:17.468Z,6.03
2023-03-11T16:56:15.590Z,4.28
2023-03-11T17:01:13.797Z,5.78
2023-03-11T17:06:13.289Z,7.40
2023-03-11T17:11:15.517Z,6.03
2023-03-11T17:16:13.982Z,6.32
2023-03-11T17:21:14.971Z,3.95
2023-03-11T17:26:14.061Z,3.55
2023-03-11T17:31:12.811Z,4.70
2023-03-11T17:36:13.830Z,3.00
2023-03-11T17:41:14.996Z,3.08
2023-03-11T17:46:14.973Z,3.28
2023-03-11T17:51:14.086Z,3.47
2023-03-11T17:56:14.598Z,3.40
2023-03-11T18:01:14.006Z,3.50
2023-03-11T18:06:13.017Z,3.75
2023-03-11T18:11:12.263Z,3.75
2023-03-11T18:16:13.435Z,5.30
2023-03-11T18:21:12.499Z,7.03
2023-03-11T18:26:11.803Z,3.45
2023-03-11T18:31:12.012Z,3.25
2023-03-11T18:36:14.027Z,4.68
2023-03-11T18:41:12.316Z,7.63
2023-03-11T18:46:12.825Z,6.50
2023-03-11T18:51:11.216Z,5.72
2023-03-11T18:56:10.350Z,4.78
2023-03-11T19:01:09.206Z,4.47
2023-03-11T19:06:09.708Z,3.13
2023-03-11T19:11:08.134Z,3.97
2023-03-11T19:16:06.767Z,3.08
2023-03-11T19:21:06.081Z,6.80
2023-03-11T19:26:05.752Z,3.78
2023-03-11T19:31:04.252Z,3.22
2023-03-11T19:36:03.575Z,4.47
2023-03-11T19:41:02.591Z,5.07
2023-03-11T19:46:02.322Z,5.25
2023-03-11T19:51:00.553Z,4.25
2023-03-11T19:55:59.106Z,4.07
2023-03-11T20:00:58.035Z,3.30
2023-03-11T20:05:59.726Z,3.22
2023-03-11T20:11:01.628Z,2.65
2023-03-11T20:16:04.890Z,3.78
2023-03-11T20:21:07.318Z,4.00
2023-03-11T20:26:06.227Z,2.20
2023-03-11T20:31:08.816Z,8.88
2023-03-11T20:36:09.532Z,32.78
2023-03-11T20:41:09.587Z,8.10
2023-03-11T20:46:08.821Z,3.63
2023-03-11T20:51:09.373Z,5.55
2023-03-11T20:56:09.338Z,7.45
2023-03-11T21:01:14.171Z,6.60
2023-03-11T21:06:18.314Z,4.15
2023-03-11T21:11:16.817Z,9.50
2023-03-11T21:16:15.214Z,13.50
2023-03-11T21:21:13.871Z,8.32
2023-03-11T21:26:14.147Z,13.82
2023-03-11T21:31:13.346Z,9.55
2023-03-11T21:36:12.623Z,9.25
2023-03-11T21:41:11.729Z,4.43
2023-03-11T21:46:12.234Z,5.22
2023-03-11T21:51:10.532Z,12.35
2023-03-11T21:56:10.002Z,5.57
2023-03-11T22:01:08.394Z,8.68
2023-03-11T22:06:09.289Z,13.65
2023-03-11T22:11:08.300Z,12.48
2023-03-11T22:16:07.707Z,9.75
2023-03-11T22:21:08.169Z,10.27
2023-03-11T22:26:08.876Z,9.75
2023-03-11T22:31:07.403Z,8.27
2023-03-11T22:36:07.749Z,8.15
2023-03-11T22:41:07.576Z,4.97
2023-03-11T22:46:07.886Z,5.00
2023-03-11T22:51:06.442Z,5.72
2023-03-11T22:56:07.762Z,5.28
2023-03-11T23:01:07.476Z,4.82
2023-03-11T23:06:07.123Z,6.95
2023-03-11T23:11:06.410Z,6.03
2023-03-11T23:16:05.648Z,5.63
2023-03-11T23:21:05.397Z,5.60
2023-03-11T23:26:07.953Z,5.40
2023-03-11T23:31:06.097Z,7.78
2023-03-11T23:36:06.903Z,7.95
2023-03-11T23:41:06.419Z,7.25
2023-03-11T23:46:04.705Z,7.00
2023-03-11T23:51:03.132Z,7.25
2023-03-11T23:56:02.723Z,8.30
